METAR Data
IDs: Format: Raw Decoded Include TAF

Data at: 2148 UTC 01 Dec 2021

LRCK 012130Z 22009KT CAVOK 00/M00 Q1011 NOSIG